LIPZ

Venezia / Tessera - Marco Polo Airport

Airport
ICAO code
LIPZ
IATA Code
VCE
Summary
ICAO Region
EUR
ICAO Territory
Location

Tessera, Veneto

Serving
Venice
Elevation
7 ft
Coordinates
45° 30' 19" N , 12° 21' 7" E
Metar
Observation
LIPZ 031820Z 27003KT 220V300 6000 NSC 06/04 Q1021 BECMG 4000 BR
Station
Venezia / Tessera
Date/Time
2023-02-03 18:20:00
Wind direction
270°
Wind speed
03 kts
Lowest cloud amount
nil significant cloud
Temperature
6°C
Dew point
4°C
Humidity
86%
QNH
1021 hPa
Weather condition
n/a

Venice Marco Polo Airport is the international airport of Venice, Italy. It is located on the mainland 4.3 nautical miles north of the city in Tessera.

Runways

Designator Length Width Surface Rops
04L/22R 2780 45 ASP Yes/Yes
04R/22L 3300 45 ASP Yes/Yes

Airport map

Aerial View

SKYbrary Partners:

Safety knowledge contributed by: